createdAt,value
2022-09-20T00:00:51.344Z,10.30
2022-09-20T00:01:51.304Z,12.20
2022-09-20T00:02:51.296Z,12.10
2022-09-20T00:03:51.274Z,14.00
2022-09-20T00:04:51.332Z,13.30
2022-09-20T00:05:51.257Z,10.90
2022-09-20T00:06:51.263Z,11.60
2022-09-20T00:07:51.234Z,9.40
2022-09-20T00:08:51.466Z,15.30
2022-09-20T00:09:51.214Z,12.30
2022-09-20T00:10:51.213Z,13.60
2022-09-20T00:11:51.196Z,13.10
2022-09-20T00:12:51.202Z,13.00
2022-09-20T00:13:51.184Z,12.60
2022-09-20T00:14:51.998Z,13.80
2022-09-20T00:15:51.154Z,13.10
2022-09-20T00:16:51.207Z,16.80
2022-09-20T00:17:51.124Z,14.00
2022-09-20T00:18:58.888Z,12.70
2022-09-20T00:19:51.107Z,16.60
2022-09-20T00:20:51.108Z,14.50
2022-09-20T00:21:51.077Z,17.60
2022-09-20T00:22:51.067Z,19.60
2022-09-20T00:23:51.047Z,18.70
2022-09-20T00:24:51.066Z,18.90
2022-09-20T00:25:51.035Z,23.60
2022-09-20T00:26:51.028Z,20.40
2022-09-20T00:27:51.006Z,13.90
2022-09-20T00:28:51.006Z,17.80
2022-09-20T00:29:50.986Z,23.30
2022-09-20T00:30:51.009Z,22.80
2022-09-20T00:31:51.009Z,19.20
2022-09-20T00:32:50.977Z,18.20
2022-09-20T00:33:50.937Z,21.30
2022-09-20T00:34:50.940Z,19.50
2022-09-20T00:35:50.935Z,24.00
2022-09-20T00:36:51.685Z,23.90
2022-09-20T00:37:51.103Z,20.00
2022-09-20T00:38:50.894Z,21.20
2022-09-20T00:39:50.868Z,22.00
2022-09-20T00:40:50.874Z,20.40
2022-09-20T00:41:50.846Z,22.10
2022-09-20T00:42:50.856Z,22.60
2022-09-20T00:43:50.854Z,21.10
2022-09-20T00:44:50.839Z,27.40
2022-09-20T00:45:50.875Z,26.20
2022-09-20T00:46:50.813Z,33.20
2022-09-20T00:47:50.794Z,25.40
2022-09-20T00:48:50.788Z,18.60
2022-09-20T00:49:50.764Z,23.40
2022-09-20T00:50:50.764Z,24.40
2022-09-20T00:51:50.735Z,22.10
2022-09-20T00:52:50.746Z,27.10
2022-09-20T00:53:50.714Z,26.00
2022-09-20T00:54:50.722Z,30.80
2022-09-20T00:55:50.695Z,26.10
2022-09-20T00:56:50.701Z,29.50
2022-09-20T00:57:50.668Z,27.60
2022-09-20T00:58:51.015Z,23.40
2022-09-20T00:59:50.643Z,31.40
2022-09-20T01:00:50.836Z,31.20
2022-09-20T01:01:50.653Z,28.60
2022-09-20T01:02:50.677Z,29.20
2022-09-20T01:03:50.603Z,39.80
2022-09-20T01:04:50.604Z,32.20
2022-09-20T01:05:50.581Z,36.90
2022-09-20T01:06:50.584Z,29.80
2022-09-20T01:07:50.563Z,34.30
2022-09-20T01:08:50.563Z,29.30
2022-09-20T01:09:50.542Z,23.70
2022-09-20T01:10:50.533Z,26.30
2022-09-20T01:11:50.525Z,33.20
2022-09-20T01:12:50.513Z,25.40
2022-09-20T01:13:50.495Z,29.90
2022-09-20T01:14:50.554Z,33.40
2022-09-20T01:15:50.471Z,28.70
2022-09-20T01:16:50.534Z,26.60
2022-09-20T01:17:51.105Z,27.80
2022-09-20T01:18:51.222Z,28.30
2022-09-20T01:19:50.461Z,32.30
2022-09-20T01:20:50.532Z,24.80
2022-09-20T01:21:50.397Z,29.80
2022-09-20T01:22:50.401Z,31.40
2022-09-20T01:23:50.382Z,30.70
2022-09-20T01:24:50.380Z,27.10
2022-09-20T01:25:50.372Z,30.20
2022-09-20T01:26:50.350Z,30.60
2022-09-20T01:27:50.331Z,32.40
2022-09-20T01:28:50.332Z,31.80
2022-09-20T01:29:50.311Z,32.80
2022-09-20T01:30:50.312Z,35.70
2022-09-20T01:31:50.360Z,26.10
2022-09-20T01:32:50.283Z,25.20
2022-09-20T01:33:50.268Z,25.00
2022-09-20T01:34:50.273Z,24.10
2022-09-20T01:35:50.236Z,26.70
2022-09-20T01:36:50.443Z,29.10
2022-09-20T01:37:50.212Z,28.40
2022-09-20T01:38:50.218Z,30.10
2022-09-20T01:39:50.208Z,32.30
2022-09-20T01:40:50.210Z,30.00
2022-09-20T01:41:50.173Z,29.20
2022-09-20T01:42:50.181Z,34.00
2022-09-20T01:43:50.151Z,26.00
2022-09-20T01:44:50.159Z,28.10
2022-09-20T01:45:50.165Z,31.60
2022-09-20T01:46:50.131Z,32.60
2022-09-20T01:47:50.134Z,33.50
2022-09-20T01:48:50.107Z,30.60
2022-09-20T01:49:50.079Z,30.80
2022-09-20T01:50:50.114Z,30.50
2022-09-20T01:51:50.094Z,24.80
2022-09-20T01:52:50.069Z,27.10
2022-09-20T01:53:50.220Z,29.20
2022-09-20T01:54:50.040Z,35.30
2022-09-20T01:55:50.021Z,34.50
2022-09-20T01:56:50.021Z,26.20
2022-09-20T01:57:50.025Z,28.80
2022-09-20T01:59:06.969Z,31.50
2022-09-20T01:59:51.899Z,29.70
2022-09-20T02:00:50.082Z,34.00
2022-09-20T02:01:49.948Z,30.30
2022-09-20T02:02:50.003Z,31.30
2022-09-20T02:03:49.932Z,35.50
2022-09-20T02:04:49.929Z,34.10
2022-09-20T02:05:49.908Z,35.30
2022-09-20T02:06:49.909Z,32.20
2022-09-20T02:07:49.889Z,33.10
2022-09-20T02:08:49.890Z,22.80
2022-09-20T02:09:49.858Z,24.70
2022-09-20T02:10:49.869Z,24.50
2022-09-20T02:11:49.839Z,32.30
2022-09-20T02:12:49.858Z,28.10
2022-09-20T02:13:49.817Z,30.50
2022-09-20T02:14:49.837Z,28.90
2022-09-20T02:15:49.799Z,20.20
2022-09-20T02:16:49.843Z,29.20
2022-09-20T02:17:49.787Z,29.80
2022-09-20T02:18:50.589Z,29.60
2022-09-20T02:19:49.758Z,26.10
2022-09-20T02:20:49.761Z,22.30
2022-09-20T02:21:49.737Z,26.60
2022-09-20T02:22:49.798Z,27.70
2022-09-20T02:23:49.736Z,31.50
2022-09-20T02:24:49.716Z,26.30
2022-09-20T02:25:49.684Z,29.80
2022-09-20T02:26:49.686Z,31.50
2022-09-20T02:27:49.657Z,34.20
2022-09-20T02:28:49.668Z,34.90
2022-09-20T02:29:49.646Z,32.50
2022-09-20T02:30:49.648Z,30.90
2022-09-20T02:31:49.656Z,33.40
2022-09-20T02:32:49.616Z,29.80
2022-09-20T02:33:49.599Z,31.20
2022-09-20T02:34:49.606Z,29.40
2022-09-20T02:35:49.586Z,27.70
2022-09-20T02:36:49.578Z,26.30
2022-09-20T02:37:49.552Z,30.30
2022-09-20T02:38:49.556Z,35.10
2022-09-20T02:39:50.216Z,28.10
2022-09-20T02:40:49.563Z,31.90
2022-09-20T02:41:49.508Z,28.30
2022-09-20T02:42:49.515Z,31.50
2022-09-20T02:43:49.486Z,25.30
2022-09-20T02:44:49.496Z,31.00
2022-09-20T02:45:49.593Z,25.00
2022-09-20T02:46:49.485Z,25.30
2022-09-20T02:47:49.440Z,30.60
2022-09-20T02:48:49.446Z,32.40
2022-09-20T02:49:49.426Z,34.00
2022-09-20T02:50:49.697Z,36.80
2022-09-20T02:51:49.404Z,34.00
2022-09-20T02:52:49.414Z,31.00
2022-09-20T02:53:49.374Z,37.00
2022-09-20T02:54:49.386Z,30.70
2022-09-20T02:55:49.354Z,31.10
2022-09-20T02:56:49.632Z,37.80
2022-09-20T02:57:49.334Z,32.60
2022-09-20T02:58:49.343Z,33.80
2022-09-20T02:59:49.746Z,37.40
2022-09-20T03:00:49.371Z,34.20
2022-09-20T03:01:50.129Z,26.30
2022-09-20T03:02:49.294Z,39.20
2022-09-20T03:03:49.266Z,32.30
2022-09-20T03:04:49.274Z,32.60
2022-09-20T03:05:49.243Z,42.30
2022-09-20T03:06:49.252Z,34.60
2022-09-20T03:07:49.223Z,34.70
2022-09-20T03:08:49.225Z,32.30
2022-09-20T03:09:49.214Z,32.00
2022-09-20T03:10:49.213Z,35.90
2022-09-20T03:11:49.175Z,33.30
2022-09-20T03:12:49.869Z,33.50
2022-09-20T03:13:49.152Z,35.60
2022-09-20T03:14:49.161Z,32.40
2022-09-20T03:15:49.125Z,41.70
2022-09-20T03:16:52.289Z,34.20
2022-09-20T03:17:49.103Z,46.50
2022-09-20T03:18:49.161Z,45.30
2022-09-20T03:19:49.101Z,42.60
2022-09-20T03:20:50.014Z,44.10
2022-09-20T03:21:49.182Z,41.80
2022-09-20T03:22:49.062Z,45.60
2022-09-20T03:23:49.200Z,42.50
2022-09-20T03:24:49.051Z,41.80
2022-09-20T03:25:49.014Z,43.80
2022-09-20T03:26:49.021Z,43.30
2022-09-20T03:27:49.008Z,46.80
2022-09-20T03:28:49.041Z,40.50
2022-09-20T03:29:49.001Z,46.70
2022-09-20T03:30:48.980Z,46.40
2022-09-20T03:31:49.045Z,43.90
2022-09-20T03:32:48.960Z,38.80
2022-09-20T03:33:48.922Z,44.30
2022-09-20T03:34:49.163Z,40.00
2022-09-20T03:35:48.920Z,40.90
2022-09-20T03:36:48.911Z,38.20
2022-09-20T03:37:48.886Z,45.20
2022-09-20T03:38:48.901Z,41.70
2022-09-20T03:39:48.889Z,45.80
2022-09-20T03:40:49.714Z,45.50
2022-09-20T03:41:48.852Z,46.30
2022-09-20T03:42:48.861Z,43.70
2022-09-20T03:43:48.821Z,44.80
2022-09-20T03:44:48.820Z,47.40
2022-09-20T03:45:48.869Z,43.90
2022-09-20T03:46:48.810Z,45.40
2022-09-20T03:47:48.849Z,47.70
2022-09-20T03:48:48.781Z,44.50
2022-09-20T03:49:48.760Z,49.10
2022-09-20T03:50:48.750Z,34.80
2022-09-20T03:51:48.775Z,43.60
2022-09-20T03:52:48.739Z,41.00
2022-09-20T03:53:48.710Z,43.10
2022-09-20T03:54:48.719Z,37.60
2022-09-20T03:55:48.688Z,40.80
2022-09-20T03:56:48.721Z,40.20
2022-09-20T03:57:48.669Z,42.70
2022-09-20T03:58:48.677Z,37.60
2022-09-20T03:59:48.929Z,43.90
2022-09-20T04:00:49.032Z,40.50
2022-09-20T04:01:49.154Z,41.50
2022-09-20T04:02:49.411Z,38.50
2022-09-20T04:03:49.327Z,41.70
2022-09-20T04:04:49.371Z,39.50
2022-09-20T04:05:49.531Z,39.20
2022-09-20T04:06:48.609Z,37.30
2022-09-20T04:07:48.599Z,43.60
2022-09-20T04:08:49.348Z,37.60
2022-09-20T04:09:48.559Z,43.50
2022-09-20T04:10:48.551Z,40.60
2022-09-20T04:11:48.539Z,41.20
2022-09-20T04:12:48.499Z,41.10
2022-09-20T04:13:48.517Z,42.80
2022-09-20T04:14:48.511Z,46.30
2022-09-20T04:15:48.489Z,35.50
2022-09-20T04:16:48.537Z,38.50
2022-09-20T04:17:48.467Z,36.40
2022-09-20T04:18:48.449Z,41.40
2022-09-20T04:19:48.759Z,35.70
2022-09-20T04:20:48.574Z,43.00
2022-09-20T04:21:49.278Z,37.70
2022-09-20T04:22:48.470Z,25.60
2022-09-20T04:23:48.477Z,35.70
2022-09-20T04:24:48.395Z,31.30
2022-09-20T04:25:48.496Z,31.10
2022-09-20T04:26:48.390Z,33.10
2022-09-20T04:27:48.707Z,35.00
2022-09-20T04:28:48.329Z,30.70
2022-09-20T04:29:48.355Z,27.80
2022-09-20T04:30:49.032Z,31.70
2022-09-20T04:31:53.823Z,30.60
2022-09-20T04:32:49.292Z,30.30
2022-09-20T04:33:48.302Z,34.90
2022-09-20T04:34:48.276Z,28.30
2022-09-20T04:35:48.627Z,29.50
2022-09-20T04:36:48.967Z,31.40
2022-09-20T04:37:48.265Z,22.50
2022-09-20T04:38:48.228Z,26.60
2022-09-20T04:39:48.236Z,27.40
2022-09-20T04:40:48.284Z,27.30
2022-09-20T04:41:49.005Z,27.00
2022-09-20T04:42:49.056Z,25.70
2022-09-20T04:43:48.249Z,32.30
2022-09-20T04:44:49.116Z,22.90
2022-09-20T04:45:49.082Z,28.40
2022-09-20T04:46:49.361Z,24.30
2022-09-20T04:47:48.935Z,28.30
2022-09-20T04:48:48.176Z,28.80
2022-09-20T04:49:48.895Z,23.80
2022-09-20T04:50:48.095Z,27.20
2022-09-20T04:51:48.102Z,27.60
2022-09-20T04:52:48.354Z,25.90
2022-09-20T04:53:49.015Z,27.80
2022-09-20T04:54:48.054Z,28.90
2022-09-20T04:55:48.062Z,21.90
2022-09-20T04:56:48.026Z,24.80
2022-09-20T04:57:48.035Z,27.30
2022-09-20T04:58:48.795Z,24.60
2022-09-20T04:59:48.058Z,27.50
2022-09-20T05:00:48.049Z,25.70
2022-09-20T05:01:48.797Z,22.40
2022-09-20T05:02:48.664Z,22.90
2022-09-20T05:03:48.678Z,26.10
2022-09-20T05:04:48.733Z,19.10
2022-09-20T05:05:47.945Z,26.90
2022-09-20T05:06:48.793Z,23.50
2022-09-20T05:07:48.704Z,26.60
2022-09-20T05:08:48.023Z,19.70
2022-09-20T05:09:48.613Z,23.00
2022-09-20T05:10:47.893Z,26.90
2022-09-20T05:11:47.873Z,30.10
2022-09-20T05:12:47.854Z,27.70
2022-09-20T05:13:47.847Z,27.10
2022-09-20T05:14:48.541Z,25.00
2022-09-20T05:15:47.834Z,26.00
2022-09-20T05:16:47.874Z,32.40
2022-09-20T05:17:47.801Z,35.90
2022-09-20T05:18:47.783Z,42.00
2022-09-20T05:19:48.573Z,38.40
2022-09-20T05:20:48.474Z,40.60
2022-09-20T05:21:47.794Z,45.90
2022-09-20T05:22:47.764Z,52.70
2022-09-20T05:23:48.452Z,43.90
2022-09-20T05:24:47.780Z,52.30
2022-09-20T05:25:47.734Z,62.60
2022-09-20T05:26:47.722Z,55.20
2022-09-20T05:27:48.033Z,62.20
2022-09-20T05:28:47.670Z,52.70
2022-09-20T05:29:47.671Z,54.70
2022-09-20T05:30:47.693Z,53.00
2022-09-20T05:31:47.670Z,58.60
2022-09-20T05:32:47.621Z,61.60
2022-09-20T05:33:47.629Z,60.20
2022-09-20T05:34:47.602Z,54.80
2022-09-20T05:35:47.609Z,48.90
2022-09-20T05:36:48.329Z,49.40
2022-09-20T05:37:47.610Z,45.70
2022-09-20T05:38:47.566Z,50.30
2022-09-20T05:39:47.559Z,51.40
2022-09-20T05:40:47.531Z,48.20
2022-09-20T05:41:48.251Z,48.10
2022-09-20T05:42:47.644Z,60.20
2022-09-20T05:43:48.312Z,58.00
2022-09-20T05:44:48.221Z,51.30
2022-09-20T05:45:48.436Z,48.90
2022-09-20T05:46:47.511Z,57.10
2022-09-20T05:47:48.190Z,53.80
2022-09-20T05:48:47.785Z,51.00
2022-09-20T05:49:47.452Z,57.20
2022-09-20T05:50:47.468Z,56.60
2022-09-20T05:51:47.419Z,59.60
2022-09-20T05:52:47.401Z,55.80
2022-09-20T05:53:47.445Z,62.20
2022-09-20T05:54:47.382Z,64.40
2022-09-20T05:55:47.401Z,63.40
2022-09-20T05:56:47.350Z,57.90
2022-09-20T05:57:48.101Z,57.90
2022-09-20T05:58:48.007Z,64.20
2022-09-20T05:59:47.331Z,66.70
2022-09-20T06:00:47.326Z,64.60
2022-09-20T06:01:47.388Z,52.60
2022-09-20T06:02:47.278Z,67.20
2022-09-20T06:03:47.298Z,48.90
2022-09-20T06:04:47.278Z,61.50
2022-09-20T06:05:47.278Z,61.10
2022-09-20T06:06:48.158Z,65.40
2022-09-20T06:07:47.251Z,63.80
2022-09-20T06:08:47.982Z,62.40
2022-09-20T06:09:47.995Z,57.10
2022-09-20T06:10:47.202Z,52.30
2022-09-20T06:11:47.187Z,43.30
2022-09-20T06:12:47.158Z,49.30
2022-09-20T06:13:48.003Z,67.10
2022-09-20T06:14:47.199Z,73.90
2022-09-20T06:15:47.916Z,77.80
2022-09-20T06:16:47.224Z,70.20
2022-09-20T06:17:47.116Z,57.40
2022-09-20T06:18:47.097Z,61.70
2022-09-20T06:19:47.107Z,53.80
2022-09-20T06:20:47.186Z,52.60
2022-09-20T06:21:47.076Z,73.30
2022-09-20T06:22:47.047Z,59.40
2022-09-20T06:23:47.080Z,61.60
2022-09-20T06:24:47.963Z,51.90
2022-09-20T06:25:47.717Z,63.40
2022-09-20T06:26:47.016Z,71.00
2022-09-20T06:27:47.026Z,56.80
2022-09-20T06:28:46.986Z,58.70
2022-09-20T06:29:46.986Z,56.10
2022-09-20T06:30:46.992Z,59.50
2022-09-20T06:31:47.655Z,58.80
2022-09-20T06:32:46.946Z,63.50
2022-09-20T06:33:47.126Z,53.50
2022-09-20T06:34:47.770Z,58.70
2022-09-20T06:35:46.968Z,59.20
2022-09-20T06:36:46.897Z,67.30
2022-09-20T06:37:46.914Z,52.20
2022-09-20T06:38:46.865Z,54.60
2022-09-20T06:39:46.872Z,49.80
2022-09-20T06:40:46.845Z,52.40
2022-09-20T06:41:46.855Z,62.60
2022-09-20T06:42:47.630Z,44.10
2022-09-20T06:43:47.679Z,58.50
2022-09-20T06:44:46.845Z,62.90
2022-09-20T06:45:47.838Z,60.30
2022-09-20T06:46:47.668Z,44.90
2022-09-20T06:47:47.545Z,64.10
2022-09-20T06:48:46.781Z,53.60
2022-09-20T06:49:46.830Z,51.60
2022-09-20T06:50:46.986Z,49.30
2022-09-20T06:51:46.735Z,43.30
2022-09-20T06:52:46.736Z,35.90
2022-09-20T06:53:47.486Z,47.10
2022-09-20T06:54:46.738Z,48.50
2022-09-20T06:55:47.581Z,47.20
2022-09-20T06:56:46.664Z,44.20
2022-09-20T06:57:46.766Z,37.60
2022-09-20T06:58:46.644Z,45.00
2022-09-20T06:59:46.664Z,41.30
2022-09-20T07:00:46.664Z,39.50
2022-09-20T07:01:46.649Z,41.20
2022-09-20T07:02:46.594Z,40.90
2022-09-20T07:03:46.594Z,39.60
2022-09-20T07:04:47.304Z,40.30
2022-09-20T07:05:46.653Z,42.20
2022-09-20T07:06:46.584Z,46.10
2022-09-20T07:07:46.554Z,41.50
2022-09-20T07:08:46.527Z,37.70
2022-09-20T07:09:46.559Z,22.90
2022-09-20T07:10:46.503Z,27.40
2022-09-20T07:11:46.505Z,18.60
2022-09-20T07:12:46.483Z,17.80
2022-09-20T07:13:46.483Z,22.90
2022-09-20T07:14:46.473Z,28.20
2022-09-20T07:15:46.463Z,26.50
2022-09-20T07:16:46.494Z,25.50
2022-09-20T07:17:46.443Z,22.30
2022-09-20T07:18:46.412Z,18.80
2022-09-20T07:19:46.413Z,18.70
2022-09-20T07:20:46.413Z,16.50
2022-09-20T07:21:46.393Z,14.50
2022-09-20T07:22:46.362Z,18.30
2022-09-20T07:23:46.372Z,21.40
2022-09-20T07:24:46.351Z,12.70
2022-09-20T07:25:46.374Z,15.90
2022-09-20T07:26:46.563Z,15.40
2022-09-20T07:27:46.322Z,16.10
2022-09-20T07:28:46.298Z,18.00
2022-09-20T07:29:46.301Z,19.00
2022-09-20T07:30:47.011Z,12.80
2022-09-20T07:31:46.333Z,12.70
2022-09-20T07:32:46.282Z,16.20
2022-09-20T07:33:46.262Z,15.00
2022-09-20T07:34:46.222Z,18.70
2022-09-20T07:35:46.242Z,15.60
2022-09-20T07:36:46.212Z,13.60
2022-09-20T07:37:46.215Z,17.10
2022-09-20T07:38:46.183Z,20.80
2022-09-20T07:39:46.192Z,19.70
2022-09-20T07:40:46.208Z,15.00
2022-09-20T07:41:46.168Z,15.30
2022-09-20T07:42:46.142Z,16.30
2022-09-20T07:43:46.141Z,16.50
2022-09-20T07:44:46.111Z,19.00
2022-09-20T07:45:46.262Z,14.70
2022-09-20T07:46:46.092Z,20.40
2022-09-20T07:47:46.123Z,18.10
2022-09-20T07:48:46.072Z,15.60
2022-09-20T07:49:46.071Z,15.20
2022-09-20T07:50:46.042Z,11.40
2022-09-20T07:51:46.052Z,14.80
2022-09-20T07:52:46.022Z,19.20
2022-09-20T07:53:46.281Z,18.40
2022-09-20T07:54:46.002Z,13.50
2022-09-20T07:55:46.001Z,16.00
2022-09-20T07:56:45.976Z,16.10
2022-09-20T07:57:45.992Z,18.00
2022-09-20T07:58:50.041Z,16.90
2022-09-20T07:59:46.971Z,14.10
2022-09-20T08:00:46.081Z,13.60
2022-09-20T08:01:45.932Z,12.50
2022-09-20T08:02:45.923Z,15.80
2022-09-20T08:03:45.911Z,16.80
2022-09-20T08:04:45.922Z,13.10
2022-09-20T08:05:45.892Z,15.40
2022-09-20T08:06:46.379Z,13.80
2022-09-20T08:07:45.864Z,21.20
2022-09-20T08:08:45.854Z,14.20
2022-09-20T08:09:45.852Z,15.80
2022-09-20T08:10:45.822Z,15.60
2022-09-20T08:11:45.822Z,15.00
2022-09-20T08:14:46.772Z,20.00
2022-09-20T08:15:45.778Z,12.80
2022-09-20T08:16:45.828Z,13.80
2022-09-20T08:17:45.752Z,17.00
2022-09-20T08:18:45.722Z,17.80
2022-09-20T08:19:45.721Z,18.60
2022-09-20T08:20:45.700Z,17.10
2022-09-20T08:21:45.708Z,19.30
2022-09-20T08:22:56.448Z,13.80
2022-09-20T08:23:46.672Z,16.80
2022-09-20T08:24:45.661Z,17.80
2022-09-20T08:25:45.662Z,14.50
2022-09-20T08:26:46.344Z,11.70
2022-09-20T08:27:45.642Z,14.80
2022-09-20T08:28:45.620Z,14.80
2022-09-20T08:29:45.591Z,13.20
2022-09-20T08:30:45.600Z,16.20
2022-09-20T08:31:45.738Z,14.10
2022-09-20T08:32:46.280Z,13.10
2022-09-20T08:33:45.552Z,17.80
2022-09-20T08:34:49.335Z,15.00
2022-09-20T08:35:45.536Z,14.50
2022-09-20T08:36:45.562Z,13.90
2022-09-20T08:37:45.511Z,14.70
2022-09-20T08:40:01.922Z,13.70
2022-09-20T08:40:46.520Z,13.00
2022-09-20T08:41:45.461Z,12.20
2022-09-20T08:42:45.480Z,11.70
2022-09-20T08:43:45.773Z,16.70
2022-09-20T08:44:45.753Z,14.30
2022-09-20T08:45:45.458Z,12.70
2022-09-20T08:46:45.422Z,13.80
2022-09-20T08:47:45.409Z,12.70
2022-09-20T08:48:45.551Z,14.00
2022-09-20T08:49:46.626Z,14.70
2022-09-20T08:50:45.371Z,12.10
2022-09-20T08:51:48.556Z,11.90
2022-09-20T08:52:45.352Z,15.40
2022-09-20T08:53:49.095Z,12.50
2022-09-20T08:54:45.341Z,15.80
2022-09-20T08:55:45.301Z,15.70
2022-09-20T08:56:45.309Z,14.20
2022-09-20T08:57:45.280Z,13.70
2022-09-20T08:58:45.308Z,13.70
2022-09-20T08:59:45.259Z,13.30
2022-09-20T09:00:45.281Z,15.60
2022-09-20T09:01:45.231Z,13.00
2022-09-20T09:02:45.238Z,12.30
2022-09-20T09:03:45.211Z,14.80
2022-09-20T09:04:45.210Z,13.40
2022-09-20T09:05:45.182Z,12.30
2022-09-20T09:06:45.180Z,13.10
2022-09-20T09:07:45.160Z,13.90
2022-09-20T09:08:46.060Z,16.00
2022-09-20T09:09:45.150Z,13.10
2022-09-20T09:10:45.270Z,15.50
2022-09-20T09:11:46.196Z,13.10
2022-09-20T09:12:48.769Z,13.90
2022-09-20T09:13:45.090Z,9.40
2022-09-20T09:14:45.092Z,10.10
2022-09-20T09:15:45.061Z,10.10
2022-09-20T09:16:45.092Z,11.30
2022-09-20T09:17:45.051Z,10.70
2022-09-20T09:18:45.044Z,11.40
2022-09-20T09:19:45.020Z,11.10
2022-09-20T09:20:45.021Z,12.40
2022-09-20T09:21:44.993Z,10.90
2022-09-20T09:22:45.002Z,9.00
2022-09-20T09:23:44.972Z,8.60
2022-09-20T09:24:44.972Z,7.00
2022-09-20T09:25:44.944Z,8.20
2022-09-20T09:26:44.949Z,11.00
2022-09-20T09:27:45.001Z,8.70
2022-09-20T09:28:44.968Z,10.90
2022-09-20T09:29:44.919Z,9.90
2022-09-20T09:30:44.912Z,9.00
2022-09-20T09:31:44.918Z,7.00
2022-09-20T09:32:44.879Z,8.10
2022-09-20T09:33:44.851Z,8.10
2022-09-20T09:34:44.851Z,7.00
2022-09-20T09:35:44.847Z,5.70
2022-09-20T09:36:44.836Z,5.00
2022-09-20T09:37:44.812Z,4.90
2022-09-20T09:38:44.862Z,5.50
2022-09-20T09:39:44.781Z,8.60
2022-09-20T09:40:44.873Z,6.00
2022-09-20T09:41:44.765Z,4.70
2022-09-20T09:42:44.773Z,3.90
2022-09-20T09:43:45.502Z,4.40
2022-09-20T09:44:45.669Z,4.70
2022-09-20T09:45:44.774Z,4.50
2022-09-20T09:46:44.730Z,4.60
2022-09-20T09:47:44.702Z,5.40
2022-09-20T09:48:44.725Z,7.20
2022-09-20T09:49:44.752Z,5.40
2022-09-20T09:50:44.671Z,4.00
2022-09-20T09:51:44.651Z,4.60
2022-09-20T09:52:44.651Z,6.10
2022-09-20T09:53:44.631Z,7.70
2022-09-20T09:54:44.657Z,5.00
2022-09-20T09:55:44.631Z,3.20
2022-09-20T09:56:44.602Z,6.00
2022-09-20T09:57:44.582Z,3.80
2022-09-20T09:58:44.661Z,5.40
2022-09-20T09:59:44.561Z,4.30
2022-09-20T10:00:44.743Z,3.80
2022-09-20T10:01:44.585Z,7.30
2022-09-20T10:02:44.602Z,4.50
2022-09-20T10:03:44.512Z,7.00
2022-09-20T10:04:44.511Z,4.00
2022-09-20T10:05:45.282Z,4.30
2022-09-20T10:06:45.382Z,5.90
2022-09-20T10:07:44.465Z,4.40
2022-09-20T10:08:45.402Z,4.90
2022-09-20T10:09:45.325Z,3.40
2022-09-20T10:10:45.220Z,5.70
2022-09-20T10:11:45.224Z,4.30
2022-09-20T10:12:45.273Z,5.70
2022-09-20T10:13:45.181Z,4.60
2022-09-20T10:14:44.427Z,9.50
2022-09-20T10:15:44.381Z,4.90
2022-09-20T10:16:45.228Z,3.70
2022-09-20T10:17:44.352Z,4.90
2022-09-20T10:18:44.721Z,3.90
2022-09-20T10:19:44.321Z,2.80
2022-09-20T10:20:44.332Z,4.40
2022-09-20T10:21:45.186Z,4.20
2022-09-20T10:23:00.041Z,4.10
2022-09-20T10:24:02.461Z,6.30
2022-09-20T10:24:48.628Z,4.50
2022-09-20T10:25:45.263Z,4.60
2022-09-20T10:26:44.270Z,4.20
2022-09-20T10:27:44.250Z,5.80
2022-09-20T10:28:44.242Z,3.70
2022-09-20T10:29:45.058Z,4.80
2022-09-20T10:30:45.158Z,3.60
2022-09-20T10:31:44.203Z,6.40
2022-09-20T10:32:44.662Z,6.40
2022-09-20T10:33:44.172Z,4.50
2022-09-20T10:34:44.172Z,5.00
2022-09-20T10:35:44.149Z,7.30
2022-09-20T10:36:44.160Z,6.40
2022-09-20T10:37:49.080Z,5.80
2022-09-20T10:38:45.864Z,2.70
2022-09-20T10:39:44.112Z,7.60
2022-09-20T10:40:44.134Z,5.30
2022-09-20T10:41:44.311Z,3.80
2022-09-20T10:42:44.083Z,4.20
2022-09-20T10:43:44.052Z,4.40
2022-09-20T10:44:44.789Z,3.00
2022-09-20T10:46:08.778Z,5.30
2022-09-20T10:46:45.064Z,4.20
2022-09-20T10:47:44.013Z,3.90
2022-09-20T10:48:44.896Z,3.70
2022-09-20T10:49:49.897Z,5.30
2022-09-20T10:50:45.758Z,4.20
2022-09-20T10:51:44.868Z,4.40
2022-09-20T10:52:43.980Z,3.10
2022-09-20T10:53:43.952Z,3.90
2022-09-20T10:54:44.324Z,3.00
2022-09-20T10:55:43.941Z,3.30
2022-09-20T10:56:43.925Z,4.50
2022-09-20T10:57:46.695Z,2.00
2022-09-20T10:58:44.074Z,2.30
2022-09-20T10:59:44.054Z,5.10
2022-09-20T11:00:44.835Z,3.20
2022-09-20T11:01:43.854Z,3.10
2022-09-20T11:02:43.861Z,4.20
2022-09-20T11:03:43.823Z,1.80
2022-09-20T11:04:43.857Z,3.00
2022-09-20T11:05:43.813Z,2.30
2022-09-20T11:06:44.036Z,3.60
2022-09-20T11:07:44.604Z,2.10
2022-09-20T11:08:43.804Z,1.30
2022-09-20T11:09:44.083Z,3.20
2022-09-20T11:10:43.785Z,1.90
2022-09-20T11:11:44.490Z,3.60
2022-09-20T11:12:44.162Z,2.10
2022-09-20T11:13:43.724Z,1.90
2022-09-20T11:14:43.743Z,1.20
2022-09-20T11:15:43.824Z,1.70
2022-09-20T11:16:43.762Z,2.30
2022-09-20T11:17:44.414Z,1.20
2022-09-20T11:18:43.694Z,3.60
2022-09-20T11:19:43.663Z,3.50
2022-09-20T11:20:43.655Z,2.10
2022-09-20T11:21:43.624Z,2.70
2022-09-20T11:22:44.312Z,1.80
2022-09-20T11:23:44.007Z,3.40
2022-09-20T11:24:43.604Z,5.80
2022-09-20T11:25:44.414Z,1.40
2022-09-20T11:26:43.947Z,2.80
2022-09-20T11:27:44.483Z,4.20
2022-09-20T11:28:44.246Z,2.90
2022-09-20T11:29:44.285Z,2.70
2022-09-20T11:30:44.444Z,4.00
2022-09-20T11:31:44.403Z,4.80
2022-09-20T11:32:44.255Z,3.10
2022-09-20T11:33:43.539Z,1.90
2022-09-20T11:34:43.534Z,1.90
2022-09-20T11:35:43.531Z,2.10
2022-09-20T11:36:43.476Z,4.40
2022-09-20T11:37:43.565Z,4.20
2022-09-20T11:38:43.465Z,3.30
2022-09-20T11:39:44.355Z,3.50
2022-09-20T11:40:43.539Z,2.00
2022-09-20T11:41:43.415Z,2.60
2022-09-20T11:42:43.397Z,2.80
2022-09-20T11:43:43.375Z,1.60
2022-09-20T11:44:43.419Z,5.30
2022-09-20T11:45:43.431Z,1.50
2022-09-20T11:46:43.595Z,1.50
2022-09-20T11:47:54.585Z,2.70
2022-09-20T11:48:44.366Z,2.20
2022-09-20T11:49:43.326Z,4.40
2022-09-20T11:50:44.057Z,3.20
2022-09-20T11:51:44.225Z,2.30
2022-09-20T11:52:43.975Z,2.80
2022-09-20T11:53:44.025Z,2.30
2022-09-20T11:54:43.265Z,1.70
2022-09-20T11:55:43.265Z,2.70
2022-09-20T11:56:44.012Z,2.80
2022-09-20T11:57:44.175Z,1.80
2022-09-20T11:58:43.915Z,2.10
2022-09-20T11:59:43.963Z,2.70
2022-09-20T12:00:43.266Z,2.20
2022-09-20T12:01:43.266Z,1.80
2022-09-20T12:02:43.263Z,3.00
2022-09-20T12:03:43.267Z,1.70
2022-09-20T12:04:43.185Z,2.20
2022-09-20T12:05:43.163Z,2.30
2022-09-20T12:06:43.139Z,2.80
2022-09-20T12:07:43.156Z,1.40
2022-09-20T12:08:43.113Z,1.80
2022-09-20T12:09:43.086Z,2.60
2022-09-20T12:10:43.124Z,1.90
2022-09-20T12:11:43.091Z,2.20
2022-09-20T12:12:43.082Z,1.40
2022-09-20T12:13:43.991Z,4.70
2022-09-20T12:14:43.055Z,3.00
2022-09-20T12:15:43.016Z,2.90
2022-09-20T12:16:43.844Z,2.40
2022-09-20T12:17:43.776Z,2.70
2022-09-20T12:18:43.077Z,2.30
2022-09-20T12:19:42.976Z,0.90
2022-09-20T12:20:43.006Z,3.20
2022-09-20T12:21:43.393Z,1.90
2022-09-20T12:22:43.662Z,3.30
2022-09-20T12:23:43.708Z,2.40
2022-09-20T12:24:45.568Z,2.30
2022-09-20T12:25:43.768Z,3.80
2022-09-20T12:26:43.682Z,1.40
2022-09-20T12:27:42.896Z,2.60
2022-09-20T12:28:43.587Z,2.40
2022-09-20T12:29:42.885Z,2.70
2022-09-20T12:30:42.864Z,2.60
2022-09-20T12:31:43.767Z,3.80
2022-09-20T12:32:43.620Z,2.10
2022-09-20T12:33:43.769Z,3.40
2022-09-20T12:34:42.860Z,2.00
2022-09-20T12:35:42.877Z,3.80
2022-09-20T12:36:42.807Z,2.40
2022-09-20T12:37:43.647Z,1.40
2022-09-20T12:38:42.767Z,3.10
2022-09-20T12:39:42.777Z,1.30
2022-09-20T12:40:42.979Z,2.00
2022-09-20T12:41:42.957Z,1.80
2022-09-20T12:42:42.710Z,1.90
2022-09-20T12:43:42.767Z,3.10
2022-09-20T12:44:42.814Z,3.70
2022-09-20T12:45:43.657Z,4.50
2022-09-20T12:46:42.677Z,2.10
2022-09-20T12:47:42.666Z,3.50
2022-09-20T12:48:42.638Z,2.80
2022-09-20T12:49:42.677Z,2.70
2022-09-20T12:50:43.038Z,2.70
2022-09-20T12:51:42.881Z,5.70
2022-09-20T12:52:43.335Z,2.50
2022-09-20T12:53:42.649Z,2.90
2022-09-20T12:54:42.898Z,2.40
2022-09-20T12:55:43.450Z,2.50
2022-09-20T12:56:43.357Z,4.10
2022-09-20T12:57:42.558Z,1.10
2022-09-20T12:58:42.554Z,1.50
2022-09-20T12:59:43.326Z,1.90
2022-09-20T13:00:42.620Z,1.30
2022-09-20T13:01:43.413Z,1.70
2022-09-20T13:02:42.651Z,3.30